createdAt,value
2019-01-05T00:04:48.880Z,26.10
2019-01-05T00:10:57.777Z,15.50
2019-01-05T00:17:20.141Z,18.07
2019-01-05T00:23:42.433Z,18.33
2019-01-05T00:30:04.362Z,14.93
2019-01-05T00:36:19.431Z,13.03
2019-01-05T00:42:32.168Z,14.07
2019-01-05T00:48:38.766Z,14.60
2019-01-05T00:54:56.704Z,15.57
2019-01-05T01:01:15.015Z,13.97
2019-01-05T01:07:20.919Z,14.83
2019-01-05T01:13:43.180Z,12.67
2019-01-05T01:20:01.122Z,14.47
2019-01-05T01:26:19.239Z,14.07
2019-01-05T01:32:40.352Z,12.73
2019-01-05T01:38:55.004Z,13.87
2019-01-05T01:45:17.189Z,10.83
2019-01-05T01:51:29.108Z,12.77
2019-01-05T01:57:40.687Z,14.37
2019-01-05T02:03:52.539Z,16.47
2019-01-05T02:10:07.401Z,12.77
2019-01-05T02:16:31.116Z,15.03
2019-01-05T02:23:11.359Z,14.37
2019-01-05T02:29:41.199Z,15.13
2019-01-05T02:36:16.930Z,15.53
2019-01-05T02:42:43.939Z,16.30
2019-01-05T02:49:31.780Z,12.87
2019-01-05T02:56:23.308Z,13.40
2019-01-05T03:02:51.892Z,12.30
2019-01-05T03:09:16.228Z,11.07
2019-01-05T03:15:31.184Z,11.20
2019-01-05T03:22:16.298Z,12.63
2019-01-05T03:28:47.126Z,10.83
2019-01-05T03:35:25.216Z,12.23
2019-01-05T03:42:07.701Z,12.07
2019-01-05T03:48:50.656Z,10.37
2019-01-05T03:55:33.944Z,9.90
2019-01-05T04:02:19.024Z,9.33
2019-01-05T04:08:55.620Z,11.07
2019-01-05T04:15:53.360Z,9.47
2019-01-05T04:22:28.373Z,7.63
2019-01-05T04:28:55.513Z,10.23
2019-01-05T04:35:07.567Z,9.07
2019-01-05T04:41:31.407Z,8.70
2019-01-05T04:47:49.313Z,9.03
2019-01-05T04:54:16.524Z,11.67
2019-01-05T05:00:55.924Z,9.47
2019-01-05T05:07:27.576Z,6.73
2019-01-05T05:13:42.448Z,6.57
2019-01-05T05:20:32.088Z,8.60
2019-01-05T05:26:49.638Z,8.47
2019-01-05T05:33:36.544Z,6.13
2019-01-05T05:39:51.240Z,7.33
2019-01-05T05:46:25.736Z,8.07
2019-01-05T05:53:04.698Z,7.27
2019-01-05T05:59:22.504Z,7.53
2019-01-05T06:06:12.141Z,9.93
2019-01-05T06:12:39.324Z,9.83
2019-01-05T06:19:23.060Z,11.57
2019-01-05T06:25:52.859Z,9.03
2019-01-05T06:32:44.072Z,19.17
2019-01-05T06:39:20.184Z,8.33
2019-01-05T06:45:54.388Z,14.50
2019-01-05T06:52:29.068Z,12.23
2019-01-05T06:58:56.000Z,12.87
2019-01-05T07:05:16.811Z,10.03
2019-01-05T07:11:58.549Z,10.43
2019-01-05T07:18:10.581Z,11.97
2019-01-05T07:24:50.248Z,14.27
2019-01-05T07:31:22.805Z,66.20
2019-01-05T07:37:59.984Z,41.43
2019-01-05T07:44:14.573Z,23.90
2019-01-05T07:51:07.519Z,37.77
2019-01-05T07:57:43.624Z,25.77
2019-01-05T08:04:28.238Z,47.50
2019-01-05T08:10:55.344Z,27.20
2019-01-05T08:17:27.243Z,27.63
2019-01-05T08:23:45.660Z,20.43
2019-01-05T08:30:20.437Z,28.10
2019-01-05T08:36:56.700Z,71.47
2019-01-05T08:43:46.022Z,143.73
2019-01-05T08:50:23.624Z,184.17
2019-01-05T08:57:09.172Z,158.77
2019-01-05T09:03:34.544Z,60.37
2019-01-05T09:10:11.788Z,64.83
2019-01-05T09:16:41.596Z,177.47
2019-01-05T09:23:29.327Z,112.17
2019-01-05T09:29:44.372Z,239.97
2019-01-05T09:36:32.956Z,94.63
2019-01-05T09:43:22.904Z,51.90
2019-01-05T09:49:40.974Z,25.40
2019-01-05T09:56:22.963Z,35.73
2019-01-05T10:03:17.360Z,33.77
2019-01-05T10:09:28.967Z,21.17
2019-01-05T10:16:21.899Z,45.50
2019-01-05T10:22:59.480Z,32.90
2019-01-05T10:29:16.777Z,39.00
2019-01-05T10:36:00.681Z,48.33
2019-01-05T10:42:30.403Z,47.13
2019-01-05T10:49:12.492Z,53.47
2019-01-05T10:55:39.411Z,40.67
2019-01-05T11:02:29.947Z,45.13
2019-01-05T11:08:58.235Z,65.67
2019-01-05T11:15:18.348Z,101.43
2019-01-05T11:21:57.428Z,87.50
2019-01-05T11:28:30.727Z,187.67
2019-01-05T11:35:03.309Z,151.13
2019-01-05T11:41:40.072Z,87.27
2019-01-05T11:48:22.683Z,329.23
2019-01-05T11:55:03.634Z,411.33
2019-01-05T12:01:43.849Z,401.10
2019-01-05T12:08:29.332Z,242.77
2019-01-05T12:15:18.189Z,308.87
2019-01-05T12:22:02.392Z,266.87
2019-01-05T12:28:30.445Z,130.53
2019-01-05T12:34:44.995Z,120.57
2019-01-05T12:41:39.300Z,114.50
2019-01-05T12:48:38.048Z,87.97
2019-01-05T12:55:04.656Z,101.10
2019-01-05T13:01:43.536Z,109.50
2019-01-05T13:08:30.081Z,285.67
2019-01-05T13:15:21.356Z,159.13
2019-01-05T13:21:42.235Z,104.87
2019-01-05T13:28:06.372Z,81.27
2019-01-05T13:34:30.316Z,116.90
2019-01-05T13:40:57.075Z,128.10
2019-01-05T13:47:41.212Z,231.90
2019-01-05T13:54:05.220Z,324.80
2019-01-05T14:00:15.131Z,217.53
2019-01-05T14:06:26.889Z,131.03
2019-01-05T14:12:38.768Z,73.50
2019-01-05T14:18:47.320Z,65.33
2019-01-05T14:24:53.178Z,70.33
2019-01-05T14:31:02.071Z,66.60
2019-01-05T14:37:24.205Z,46.70
2019-01-05T14:43:36.055Z,56.67
2019-01-05T14:49:48.564Z,85.07
2019-01-05T14:56:10.718Z,41.83
2019-01-05T15:02:31.421Z,49.93
2019-01-05T15:08:43.380Z,49.73
2019-01-05T15:15:05.898Z,46.50
2019-01-05T15:21:14.504Z,64.80
2019-01-05T15:27:20.340Z,101.13
2019-01-05T15:33:42.164Z,106.23
2019-01-05T15:40:04.769Z,206.60
2019-01-05T15:46:26.024Z,193.93
2019-01-05T15:52:49.344Z,232.17
2019-01-05T15:59:00.900Z,128.17
2019-01-05T16:05:22.103Z,153.63
2019-01-05T16:11:44.264Z,210.80
2019-01-05T16:17:53.268Z,153.70
2019-01-05T16:23:59.104Z,175.80
2019-01-05T16:30:11.111Z,179.70
2019-01-05T16:36:31.904Z,224.53
2019-01-05T16:42:37.760Z,146.80
2019-01-05T16:48:49.389Z,240.13
2019-01-05T16:55:01.903Z,181.60
2019-01-05T17:01:26.088Z,185.90
2019-01-05T17:07:48.439Z,194.97
2019-01-05T17:14:06.495Z,185.30
2019-01-05T17:20:24.568Z,227.57
2019-01-05T17:26:42.829Z,106.73
2019-01-05T17:33:05.406Z,93.67
2019-01-05T17:39:11.301Z,93.43
2019-01-05T17:45:20.120Z,64.07
2019-01-05T17:51:47.287Z,86.50
2019-01-05T17:58:07.201Z,178.83
2019-01-05T18:04:22.243Z,125.00
2019-01-05T18:10:28.183Z,165.10
2019-01-05T18:16:40.094Z,123.13
2019-01-05T18:23:02.305Z,78.57
2019-01-05T18:29:13.768Z,81.23
2019-01-05T18:35:48.965Z,85.90
2019-01-05T18:41:54.860Z,106.23
2019-01-05T18:48:16.929Z,132.43
2019-01-05T18:54:28.365Z,138.63
2019-01-05T19:00:35.240Z,102.33
2019-01-05T19:06:44.267Z,94.20
2019-01-05T19:12:53.129Z,95.40
2019-01-05T19:19:02.037Z,117.10
2019-01-05T19:25:16.754Z,122.70
2019-01-05T19:31:25.428Z,358.13
2019-01-05T19:37:33.908Z,113.20
2019-01-05T19:43:39.772Z,116.73
2019-01-05T19:49:48.608Z,108.30
2019-01-05T19:56:09.771Z,102.60
2019-01-05T20:02:16.404Z,99.93
2019-01-05T20:08:31.408Z,131.50
2019-01-05T20:14:52.772Z,95.83
2019-01-05T20:21:15.003Z,104.23
2019-01-05T20:27:37.455Z,129.53
2019-01-05T20:33:55.343Z,73.97
2019-01-05T20:40:17.632Z,83.00
2019-01-05T20:46:23.487Z,98.03
2019-01-05T20:52:38.636Z,106.97
2019-01-05T20:58:44.584Z,134.47
2019-01-05T21:05:07.582Z,84.47
2019-01-05T21:11:13.598Z,60.37
2019-01-05T21:17:19.472Z,81.73
2019-01-05T21:23:25.336Z,51.13
2019-01-05T21:29:46.417Z,49.87
2019-01-05T21:36:08.532Z,180.40
2019-01-05T21:42:14.411Z,105.77
2019-01-05T21:48:38.636Z,101.67
2019-01-05T21:54:44.624Z,139.53
2019-01-05T22:00:56.347Z,63.93
2019-01-05T22:07:09.217Z,60.57
2019-01-05T22:13:15.092Z,73.67
2019-01-05T22:19:23.688Z,66.03
2019-01-05T22:25:46.107Z,66.97
2019-01-05T22:31:57.688Z,70.33
2019-01-05T22:38:19.776Z,40.20
2019-01-05T22:44:42.192Z,44.30
2019-01-05T22:50:48.024Z,31.03
2019-01-05T22:56:53.888Z,28.23
2019-01-05T23:03:02.991Z,30.57
2019-01-05T23:09:18.666Z,28.80
2019-01-05T23:15:24.540Z,27.80
2019-01-05T23:21:33.228Z,40.77
2019-01-05T23:27:47.751Z,43.60
2019-01-05T23:33:56.479Z,50.17
2019-01-05T23:40:02.339Z,34.03
2019-01-05T23:46:23.516Z,26.77
2019-01-05T23:52:45.984Z,49.07
2019-01-05T23:59:01.180Z,65.43
